Time;durP1;ratioP1;P1;durP2;ratioP2;P2;SDS_P1;SDS_P2;PMS_P1;PMS_P2;Temp;Humidity;BMP_temperature;BMP_pressure;BME280_temperature;BME280_humidity;BME280_pressure;Samples;Min_cycle;Max_cycle;Signal;HPM_P1;HPM_P2
2024/04/22 00:00:34;;;;;;;1.73;1.63;;;;;;;;;;5401353;26;20240;-59
2024/04/22 00:03:09;;;;;;;2.20;1.83;;;;;;;;;;5389228;26;20232;-59
2024/04/22 00:05:35;;;;;;;1.63;1.63;;;;;;;;;;5404771;26;20310;-59
2024/04/22 00:08:06;;;;;;;2.90;1.80;;;;;;;;;;5401668;26;20250;-59
2024/04/22 00:10:32;;;;;;;1.90;1.80;;;;;;;;;;5399846;26;20229;-59
2024/04/22 00:13:01;;;;;;;2.23;2.13;;;;;;;;;;5390058;26;20834;-59
2024/04/22 00:15:27;;;;;;;1.90;1.70;;;;;;;;;;5397136;26;20233;-59
2024/04/22 00:17:56;;;;;;;2.40;2.30;;;;;;;;;;5405659;26;20242;-59
2024/04/22 00:20:25;;;;;;;1.77;1.67;;;;;;;;;;5388651;26;20237;-59
2024/04/22 00:22:54;;;;;;;2.67;2.47;;;;;;;;;;5450915;20;20260;-60
2024/04/22 00:25:20;;;;;;;4.37;2.77;;;;;;;;;;5413940;26;20277;-59
2024/04/22 00:27:49;;;;;;;3.07;2.87;;;;;;;;;;5412026;26;20240;-59
2024/04/22 00:30:16;;;;;;;3.17;2.97;;;;;;;;;;5430753;26;20237;-59
2024/04/22 00:32:44;;;;;;;2.87;2.77;;;;;;;;;;5396082;26;20233;-59
2024/04/22 00:35:11;;;;;;;2.47;2.37;;;;;;;;;;5399611;26;20279;-59
2024/04/22 00:37:42;;;;;;;3.00;2.80;;;;;;;;;;5383967;26;20271;-59
2024/04/22 00:40:09;;;;;;;3.10;2.93;;;;;;;;;;5383843;26;20233;-59
2024/04/22 00:42:43;;;;;;;3.50;3.33;;;;;;;;;;5385688;26;20237;-59
2024/04/22 00:45:28;;;;;;;2.67;2.50;;;;;;;;;;5380513;26;20292;-59
2024/04/22 00:47:57;;;;;;;2.70;2.60;;;;;;;;;;5374077;26;20238;-59
2024/04/22 00:50:23;;;;;;;3.37;3.17;;;;;;;;;;5399333;26;20281;-59
2024/04/22 00:52:55;;;;;;;3.67;3.37;;;;;;;;;;5402668;26;20288;-59
2024/04/22 00:55:22;;;;;;;3.83;3.53;;;;;;;;;;5405507;26;20274;-59
2024/04/22 00:57:50;;;;;;;3.77;3.50;;;;;;;;;;5394137;26;20318;-59
2024/04/22 01:00:17;;;;;;;3.57;3.37;;;;;;;;;;5391730;26;20268;-59
2024/04/22 01:02:46;;;;;;;5.27;4.83;;;;;;;;;;5388823;26;20296;-59
2024/04/22 01:05:12;;;;;;;5.03;4.50;;;;;;;;;;5380833;26;20294;-59
2024/04/22 01:07:41;;;;;;;7.00;4.27;;;;;;;;;;5397662;26;20287;-59
2024/04/22 01:10:10;;;;;;;4.43;4.03;;;;;;;;;;5399304;26;20581;-59
2024/04/22 01:12:39;;;;;;;4.17;3.87;;;;;;;;;;5390059;26;20883;-58
2024/04/22 01:15:06;;;;;;;3.93;3.73;;;;;;;;;;5383847;26;20242;-59
2024/04/22 01:17:38;;;;;;;3.30;3.10;;;;;;;;;;5395372;26;20334;-59
2024/04/22 01:20:05;;;;;;;3.00;2.87;;;;;;;;;;5399205;26;20281;-59
2024/04/22 01:22:36;;;;;;;4.00;3.70;;;;;;;;;;5401161;26;20275;-59
2024/04/22 01:25:03;;;;;;;3.33;3.13;;;;;;;;;;5384518;26;20234;-59
2024/04/22 01:27:33;;;;;;;3.47;3.23;;;;;;;;;;5384395;26;20237;-58
2024/04/22 01:30:00;;;;;;;3.77;3.47;;;;;;;;;;5386657;26;20634;-59
2024/04/22 01:32:29;;;;;;;2.50;2.40;;;;;;;;;;5389300;26;20238;-59
2024/04/22 01:34:57;;;;;;;2.80;2.60;;;;;;;;;;5395827;26;20237;-59
2024/04/22 01:37:26;;;;;;;3.20;3.00;;;;;;;;;;5389772;26;20281;-58
2024/04/22 01:39:55;;;;;;;3.17;2.97;;;;;;;;;;5371764;26;20234;-58
2024/04/22 01:42:24;;;;;;;3.23;2.20;;;;;;;;;;5388174;26;20733;-59
2024/04/22 01:44:51;;;;;;;2.43;2.33;;;;;;;;;;5384864;26;20230;-59
2024/04/22 01:47:20;;;;;;;2.47;2.37;;;;;;;;;;5383548;26;20280;-60
2024/04/22 01:49:46;;;;;;;2.40;2.30;;;;;;;;;;5380372;26;20285;-59
2024/04/22 01:52:16;;;;;;;2.83;2.70;;;;;;;;;;5378998;26;20324;-59
2024/04/22 01:54:42;;;;;;;2.17;2.07;;;;;;;;;;5403536;26;20281;-59
2024/04/22 01:57:14;;;;;;;2.20;2.10;;;;;;;;;;5388879;26;20281;-59
2024/04/22 01:59:40;;;;;;;2.30;2.17;;;;;;;;;;5389181;26;20234;-58
2024/04/22 02:02:09;;;;;;;2.53;2.07;;;;;;;;;;5384457;26;20814;-59
2024/04/22 02:04:35;;;;;;;2.80;2.60;;;;;;;;;;5408302;26;20234;-59
2024/04/22 02:07:04;;;;;;;2.33;2.17;;;;;;;;;;5403586;26;20272;-59
2024/04/22 02:09:30;;;;;;;2.40;2.30;;;;;;;;;;5384005;26;20241;-59
2024/04/22 02:11:59;;;;;;;2.10;2.00;;;;;;;;;;5375556;26;20250;-59
2024/04/22 02:14:28;;;;;;;3.93;2.97;;;;;;;;;;5407648;26;20276;-59
2024/04/22 02:16:57;;;;;;;2.80;2.60;;;;;;;;;;5389424;26;20239;-59
2024/04/22 02:19:24;;;;;;;4.07;3.33;;;;;;;;;;5405447;26;20234;-59
2024/04/22 02:21:52;;;;;;;3.23;3.03;;;;;;;;;;5400282;26;20305;-58
2024/04/22 02:24:21;;;;;;;3.00;2.80;;;;;;;;;;5393959;26;20234;-59
2024/04/22 02:26:48;;;;;;;3.13;2.83;;;;;;;;;;5388674;26;20816;-59
2024/04/22 02:29:17;;;;;;;3.17;3.07;;;;;;;;;;5408710;26;20344;-59
2024/04/22 02:31:46;;;;;;;3.33;3.13;;;;;;;;;;5387256;26;20331;-59
2024/04/22 02:34:16;;;;;;;3.43;3.23;;;;;;;;;;5404450;26;20329;-59
2024/04/22 02:36:42;;;;;;;3.10;2.90;;;;;;;;;;5386001;26;20312;-59
2024/04/22 02:39:11;;;;;;;3.87;3.53;;;;;;;;;;5385549;26;20314;-59
2024/04/22 02:41:37;;;;;;;3.50;3.30;;;;;;;;;;5377797;26;20293;-59
2024/04/22 02:44:06;;;;;;;4.03;3.73;;;;;;;;;;5385675;26;20333;-58
2024/04/22 02:46:33;;;;;;;3.53;3.33;;;;;;;;;;5403555;26;20264;-59
2024/04/22 02:49:05;;;;;;;5.03;4.40;;;;;;;;;;5406022;26;20237;-57
2024/04/22 02:51:31;;;;;;;4.77;4.33;;;;;;;;;;5386490;26;20242;-59
2024/04/22 02:54:00;;;;;;;3.67;3.37;;;;;;;;;;5389506;26;20234;-59
2024/04/22 02:56:26;;;;;;;4.13;3.73;;;;;;;;;;5381864;26;20233;-59
2024/04/22 02:58:55;;;;;;;3.13;3.00;;;;;;;;;;5388438;26;20236;-59
2024/04/22 03:01:21;;;;;;;3.93;3.73;;;;;;;;;;5403753;26;20584;-59
2024/04/22 03:03:50;;;;;;;3.97;3.67;;;;;;;;;;5388366;26;20242;-59
2024/04/22 03:06:19;;;;;;;3.30;3.00;;;;;;;;;;5398373;26;20879;-59
2024/04/22 03:08:48;;;;;;;4.00;3.43;;;;;;;;;;5390720;26;20571;-59
2024/04/22 03:11:14;;;;;;;3.33;3.13;;;;;;;;;;5387738;26;20242;-59
2024/04/22 03:13:43;;;;;;;3.83;3.57;;;;;;;;;;5385846;26;20280;-59
2024/04/22 03:16:09;;;;;;;3.60;3.40;;;;;;;;;;5401144;26;20237;-58
2024/04/22 03:18:38;;;;;;;3.07;2.87;;;;;;;;;;5392715;26;20334;-59
2024/04/22 03:21:05;;;;;;;4.40;3.57;;;;;;;;;;5398672;26;20285;-59
2024/04/22 03:23:36;;;;;;;4.23;3.93;;;;;;;;;;5389497;26;20242;-58
2024/04/22 03:26:02;;;;;;;3.47;3.27;;;;;;;;;;5408593;26;20229;-59
2024/04/22 03:28:31;;;;;;;3.97;3.67;;;;;;;;;;5404942;26;20241;-61
2024/04/22 03:30:57;;;;;;;5.10;4.80;;;;;;;;;;5396844;26;20633;-59
2024/04/22 03:33:26;;;;;;;3.87;3.57;;;;;;;;;;5394320;26;20241;-59
2024/04/22 03:35:53;;;;;;;4.27;3.97;;;;;;;;;;5402281;26;20230;-59
2024/04/22 03:38:21;;;;;;;4.27;3.97;;;;;;;;;;5389729;26;21016;-59
2024/04/22 03:40:53;;;;;;;4.30;3.93;;;;;;;;;;5400476;26;20237;-58
2024/04/22 03:43:22;;;;;;;4.20;3.90;;;;;;;;;;5391889;26;20817;-59
2024/04/22 03:51:18;;;;;;;7.03;4.83;;;;;;;;;;5398567;26;20828;-59
2024/04/22 03:53:46;;;;;;;4.40;4.10;;;;;;;;;;5400698;26;20619;-59
2024/04/22 03:56:18;;;;;;;5.17;4.77;;;;;;;;;;5398401;26;20230;-59
2024/04/22 03:58:47;;;;;;;4.00;3.70;;;;;;;;;;5388511;26;20229;-58
2024/04/22 04:01:16;;;;;;;4.17;3.57;;;;;;;;;;5392591;26;20235;-59
2024/04/22 04:03:42;;;;;;;5.23;4.73;;;;;;;;;;5379497;26;20231;-59
2024/04/22 04:06:11;;;;;;;4.63;4.33;;;;;;;;;;5376362;26;20246;-59
2024/04/22 04:08:37;;;;;;;5.53;5.07;;;;;;;;;;5389989;26;20285;-59
2024/04/22 04:11:11;;;;;;;5.43;4.83;;;;;;;;;;5408287;26;20279;-59
2024/04/22 04:13:40;;;;;;;5.03;4.63;;;;;;;;;;5390090;26;20274;-58
2024/04/22 04:16:10;;;;;;;5.33;4.83;;;;;;;;;;5379338;26;20234;-58
2024/04/22 04:18:37;;;;;;;5.03;4.63;;;;;;;;;;5397776;26;20238;-58
2024/04/22 04:21:06;;;;;;;5.10;4.70;;;;;;;;;;5390666;26;20277;-59
2024/04/22 04:23:32;;;;;;;5.90;5.40;;;;;;;;;;5400179;26;20581;-59
2024/04/22 04:26:01;;;;;;;5.20;4.80;;;;;;;;;;5386767;26;20723;-58
2024/04/22 04:28:28;;;;;;;3.90;3.57;;;;;;;;;;5399692;26;20900;-58
2024/04/22 04:31:00;;;;;;;4.73;4.40;;;;;;;;;;5386030;26;20749;-59
2024/04/22 04:33:26;;;;;;;4.17;3.87;;;;;;;;;;5392692;26;20234;-58
2024/04/22 04:36:02;;;;;;;4.00;3.80;;;;;;;;;;5394806;26;20235;-59
2024/04/22 04:38:28;;;;;;;3.27;3.07;;;;;;;;;;5393708;26;20241;-59
2024/04/22 04:40:57;;;;;;;3.90;3.60;;;;;;;;;;5388160;26;20591;-58
2024/04/22 04:43:26;;;;;;;4.60;4.30;;;;;;;;;;5380622;26;20780;-59
2024/04/22 04:45:53;;;;;;;4.90;4.60;;;;;;;;;;5390398;26;20261;-59
2024/04/22 04:48:25;;;;;;;4.30;4.00;;;;;;;;;;5390866;26;20273;-60
2024/04/22 04:50:51;;;;;;;6.87;5.83;;;;;;;;;;5394765;26;20246;-60
2024/04/22 04:53:21;;;;;;;7.27;6.57;;;;;;;;;;5369250;26;20235;-59
2024/04/22 04:55:48;;;;;;;9.67;7.27;;;;;;;;;;5377185;26;20231;-59
2024/04/22 04:58:17;;;;;;;9.33;6.63;;;;;;;;;;5404209;26;20235;-59
2024/04/22 05:00:43;;;;;;;6.03;5.57;;;;;;;;;;5403099;26;20229;-59
2024/04/22 05:03:13;;;;;;;5.87;5.37;;;;;;;;;;5384289;26;20245;-59
2024/04/22 05:05:42;;;;;;;4.70;4.40;;;;;;;;;;5381139;26;20239;-60
2024/04/22 05:08:11;;;;;;;6.57;5.97;;;;;;;;;;5368918;26;20278;-59
2024/04/22 05:10:37;;;;;;;5.83;5.33;;;;;;;;;;5390843;26;20744;-60
2024/04/22 05:13:08;;;;;;;6.33;5.93;;;;;;;;;;5382864;26;20257;-59
2024/04/22 05:15:34;;;;;;;6.93;6.23;;;;;;;;;;5403988;26;20466;-59
2024/04/22 05:18:03;;;;;;;6.83;6.30;;;;;;;;;;5398892;26;20241;-59
2024/04/22 05:20:30;;;;;;;8.57;7.57;;;;;;;;;;5386536;26;20238;-59
2024/04/22 05:23:01;;;;;;;7.60;6.77;;;;;;;;;;5393637;26;20343;-59
2024/04/22 05:25:27;;;;;;;8.87;6.60;;;;;;;;;;5391276;26;20297;-59
2024/04/22 05:27:56;;;;;;;6.77;6.17;;;;;;;;;;5398429;26;20242;-59
2024/04/22 05:30:23;;;;;;;6.37;5.87;;;;;;;;;;5386902;26;20235;-59
2024/04/22 05:32:51;;;;;;;6.70;6.10;;;;;;;;;;5376635;26;20233;-58
2024/04/22 05:38:10;;;;;;;6.77;6.17;;;;;;;;;;5383457;26;20316;-59
2024/04/22 05:40:40;;;;;;;7.23;6.53;;;;;;;;;;5400818;26;20241;-59
2024/04/22 05:43:12;;;;;;;9.33;7.23;;;;;;;;;;5385970;26;20280;-59
2024/04/22 05:45:41;;;;;;;8.47;7.37;;;;;;;;;;5391400;26;20284;-59
2024/04/22 05:48:12;;;;;;;7.33;6.67;;;;;;;;;;5400001;26;20226;-59
2024/04/22 05:50:41;;;;;;;7.63;6.87;;;;;;;;;;5426063;26;20287;-59
2024/04/22 05:53:12;;;;;;;7.97;7.23;;;;;;;;;;5407104;26;20233;-59
2024/04/22 05:55:39;;;;;;;7.13;6.50;;;;;;;;;;5406194;26;20272;-59
2024/04/22 05:58:11;;;;;;;8.03;7.33;;;;;;;;;;5380301;26;20230;-59
2024/04/22 06:00:41;;;;;;;9.00;8.13;;;;;;;;;;5403508;26;20840;-59
2024/04/22 06:03:08;;;;;;;10.23;8.30;;;;;;;;;;5406459;26;20288;-60
2024/04/22 06:05:37;;;;;;;10.40;9.27;;;;;;;;;;5379943;26;20348;-59
2024/04/22 06:08:05;;;;;;;8.63;7.83;;;;;;;;;;5377222;26;20273;-59
2024/04/22 06:10:37;;;;;;;9.23;8.43;;;;;;;;;;5406260;26;20233;-59
2024/04/22 06:13:03;;;;;;;9.97;8.80;;;;;;;;;;5389987;26;20243;-59
2024/04/22 06:15:32;;;;;;;8.83;8.07;;;;;;;;;;5406627;26;20303;-59
2024/04/22 06:17:58;;;;;;;9.17;8.37;;;;;;;;;;5401468;26;20234;-59
2024/04/22 06:20:27;;;;;;;9.17;8.30;;;;;;;;;;5395549;26;20251;-60
2024/04/22 06:22:54;;;;;;;9.30;8.53;;;;;;;;;;5396047;26;20772;-59
2024/04/22 06:25:22;;;;;;;8.20;7.50;;;;;;;;;;5388703;26;20242;-59
2024/04/22 06:27:51;;;;;;;8.97;8.20;;;;;;;;;;5374365;26;20339;-59
2024/04/22 06:30:20;;;;;;;7.70;7.00;;;;;;;;;;5384585;26;20280;-59
2024/04/22 06:32:47;;;;;;;6.90;6.33;;;;;;;;;;5394616;26;20290;-59
2024/04/22 06:35:15;;;;;;;9.00;8.20;;;;;;;;;;5406411;26;20234;-59
2024/04/22 06:40:13;;;;;;;7.63;6.97;;;;;;;;;;5417804;26;20228;-58
2024/04/22 06:42:39;;;;;;;8.10;7.40;;;;;;;;;;5416170;26;20237;-58
2024/04/22 06:45:11;;;;;;;8.17;7.47;;;;;;;;;;5406520;26;20249;-58
2024/04/22 06:47:37;;;;;;;7.50;6.87;;;;;;;;;;5398334;26;20238;-58
2024/04/22 06:50:06;;;;;;;7.87;7.27;;;;;;;;;;5405683;26;20629;-58
2024/04/22 06:52:32;;;;;;;8.13;7.43;;;;;;;;;;5406077;26;20735;-58
2024/04/22 06:55:01;;;;;;;8.70;7.03;;;;;;;;;;5406367;26;20345;-58
2024/04/22 06:57:28;;;;;;;8.63;7.20;;;;;;;;;;5404791;26;20264;-58
2024/04/22 06:59:57;;;;;;;6.70;6.27;;;;;;;;;;5402143;26;20717;-58
2024/04/22 07:02:26;;;;;;;7.60;6.90;;;;;;;;;;5406357;26;20228;-58
2024/04/22 07:04:55;;;;;;;7.87;7.20;;;;;;;;;;5405689;26;20786;-58
2024/04/22 07:07:21;;;;;;;8.53;7.83;;;;;;;;;;5406329;26;20235;-58
2024/04/22 07:09:50;;;;;;;7.87;6.97;;;;;;;;;;5405827;26;20243;-58
2024/04/22 07:12:16;;;;;;;6.97;6.47;;;;;;;;;;5406349;26;20847;-58
2024/04/22 07:14:45;;;;;;;7.27;6.67;;;;;;;;;;5406302;26;20233;-58
2024/04/22 07:17:13;;;;;;;8.33;7.63;;;;;;;;;;5405947;26;20225;-58
2024/04/22 07:19:45;;;;;;;7.83;6.63;;;;;;;;;;5405211;26;20283;-57
2024/04/22 07:22:11;;;;;;;7.77;6.97;;;;;;;;;;5405423;26;20269;-58
2024/04/22 07:24:40;;;;;;;7.47;6.87;;;;;;;;;;5406221;26;20277;-58
2024/04/22 07:27:07;;;;;;;7.53;6.90;;;;;;;;;;5406174;26;20282;-58
2024/04/22 07:29:36;;;;;;;7.90;7.20;;;;;;;;;;5405281;26;20729;-58
2024/04/22 07:32:03;;;;;;;6.13;5.70;;;;;;;;;;5405505;26;20392;-58
2024/04/22 07:34:32;;;;;;;5.70;5.30;;;;;;;;;;5405506;26;20245;-58
2024/04/22 07:37:05;;;;;;;6.17;5.77;;;;;;;;;;5405771;26;20232;-58
2024/04/22 07:39:35;;;;;;;5.80;5.23;;;;;;;;;;5405180;26;20340;-58
2024/04/22 07:42:01;;;;;;;7.80;7.13;;;;;;;;;;5405604;26;20233;-58
2024/04/22 07:44:30;;;;;;;8.17;7.37;;;;;;;;;;5427723;26;20759;-58
2024/04/22 07:46:57;;;;;;;7.23;6.70;;;;;;;;;;5411122;26;20285;-58
2024/04/22 07:49:25;;;;;;;7.53;6.47;;;;;;;;;;5410643;26;20236;-59
2024/04/22 07:51:52;;;;;;;13.37;10.07;;;;;;;;;;5405045;26;20234;-58
2024/04/22 07:54:23;;;;;;;8.47;7.23;;;;;;;;;;5405654;26;20237;-58
2024/04/22 07:56:50;;;;;;;7.43;6.23;;;;;;;;;;5405246;26;20235;-58
2024/04/22 07:59:20;;;;;;;7.67;6.93;;;;;;;;;;5403274;26;20292;-58
2024/04/22 08:01:46;;;;;;;6.53;5.93;;;;;;;;;;5405750;26;20738;-58
2024/04/22 08:04:15;;;;;;;7.23;6.47;;;;;;;;;;5389859;26;20584;-58
2024/04/22 08:06:44;;;;;;;5.47;5.07;;;;;;;;;;5405400;26;20276;-58
2024/04/22 08:09:13;;;;;;;5.13;4.83;;;;;;;;;;5402985;26;20237;-58
2024/04/22 08:11:42;;;;;;;4.47;4.10;;;;;;;;;;5405296;26;20234;-58
2024/04/22 08:14:11;;;;;;;4.30;4.00;;;;;;;;;;5404817;26;20746;-58
2024/04/22 08:16:37;;;;;;;4.67;4.30;;;;;;;;;;5405537;26;20234;-58
2024/04/22 08:19:06;;;;;;;4.53;4.23;;;;;;;;;;5404501;26;20329;-58
2024/04/22 08:21:33;;;;;;;4.63;4.33;;;;;;;;;;5405263;26;20312;-58
2024/04/22 08:24:01;;;;;;;4.80;4.40;;;;;;;;;;5404972;26;20235;-58
2024/04/22 08:26:28;;;;;;;4.00;3.80;;;;;;;;;;5399917;26;20237;-57
2024/04/22 08:28:59;;;;;;;4.27;4.07;;;;;;;;;;5400681;26;20241;-58
2024/04/22 08:31:25;;;;;;;4.33;4.03;;;;;;;;;;5407811;26;20265;-58
2024/04/22 08:33:54;;;;;;;4.87;4.20;;;;;;;;;;5374914;26;20279;-58
2024/04/22 08:36:21;;;;;;;3.40;3.20;;;;;;;;;;5370159;26;20693;-58
2024/04/22 08:38:50;;;;;;;4.87;3.50;;;;;;;;;;5369884;26;20235;-58
2024/04/22 08:41:18;;;;;;;3.60;3.40;;;;;;;;;;5372726;26;20223;-58
2024/04/22 08:43:47;;;;;;;3.77;3.30;;;;;;;;;;5405230;26;20625;-58
2024/04/22 08:46:17;;;;;;;2.73;2.63;;;;;;;;;;5405263;26;20213;-58
2024/04/22 08:48:46;;;;;;;3.10;2.90;;;;;;;;;;5402997;26;20315;-58
2024/04/22 08:51:12;;;;;;;3.60;3.40;;;;;;;;;;5404537;26;20263;-58
2024/04/22 08:53:41;;;;;;;3.53;3.43;;;;;;;;;;5405131;26;20226;-58
2024/04/22 08:56:08;;;;;;;3.33;3.13;;;;;;;;;;5405132;26;20256;-58
2024/04/22 08:58:38;;;;;;;3.43;3.23;;;;;;;;;;5404741;26;20305;-58
2024/04/22 09:01:08;;;;;;;3.57;3.33;;;;;;;;;;5404435;26;20243;-58
2024/04/22 09:03:36;;;;;;;2.77;2.57;;;;;;;;;;5404949;26;20222;-58
2024/04/22 09:06:05;;;;;;;2.97;2.87;;;;;;;;;;5404982;26;20263;-58
2024/04/22 09:08:40;;;;;;;2.43;2.33;;;;;;;;;;5387540;26;20289;-58
2024/04/22 09:11:09;;;;;;;2.20;2.10;;;;;;;;;;5369067;26;20314;-58
2024/04/22 09:13:35;;;;;;;1.67;1.57;;;;;;;;;;5369703;26;20221;-58
2024/04/22 09:16:04;;;;;;;2.20;2.20;;;;;;;;;;5401621;26;20275;-59
2024/04/22 09:18:30;;;;;;;2.30;2.10;;;;;;;;;;5404628;26;20230;-59
2024/04/22 09:21:09;;;;;;;2.53;2.10;;;;;;;;;;5405011;26;20230;-58
2024/04/22 09:23:35;;;;;;;1.53;1.47;;;;;;;;;;5408259;26;20608;-59
2024/04/22 09:26:04;;;;;;;1.80;1.80;;;;;;;;;;5408082;26;20737;-57
2024/04/22 09:28:33;;;;;;;1.80;1.73;;;;;;;;;;5407972;26;20275;-58
2024/04/22 09:31:04;;;;;;;2.70;2.50;;;;;;;;;;5406972;26;20233;-58
2024/04/22 09:33:33;;;;;;;3.30;3.10;;;;;;;;;;5407999;26;20277;-58
2024/04/22 09:36:02;;;;;;;3.83;3.63;;;;;;;;;;5407895;26;20261;-58
2024/04/22 09:38:32;;;;;;;4.17;3.77;;;;;;;;;;5407920;26;20280;-58
2024/04/22 09:41:02;;;;;;;4.20;3.93;;;;;;;;;;5407403;26;20217;-58
2024/04/22 09:43:32;;;;;;;4.00;3.53;;;;;;;;;;5407872;26;20256;-58
2024/04/22 09:46:02;;;;;;;5.37;4.93;;;;;;;;;;5407934;26;20221;-59
2024/04/22 09:48:29;;;;;;;5.80;5.23;;;;;;;;;;5407341;26;20287;-58
2024/04/22 09:50:59;;;;;;;5.67;5.27;;;;;;;;;;5407179;26;20570;-58
2024/04/22 09:53:26;;;;;;;7.30;5.93;;;;;;;;;;5407812;26;20221;-58
2024/04/22 09:55:58;;;;;;;6.70;6.10;;;;;;;;;;5407688;26;20225;-58
2024/04/22 09:58:25;;;;;;;7.07;6.47;;;;;;;;;;5407701;26;20583;-58
2024/04/22 10:00:54;;;;;;;6.90;6.17;;;;;;;;;;5407029;26;20269;-58
2024/04/22 10:03:21;;;;;;;6.67;5.97;;;;;;;;;;5406305;26;20260;-58
2024/04/22 10:05:51;;;;;;;6.50;5.87;;;;;;;;;;5407243;26;20269;-58
2024/04/22 10:08:17;;;;;;;7.07;6.50;;;;;;;;;;5405897;26;20228;-58
2024/04/22 10:10:46;;;;;;;6.57;5.93;;;;;;;;;;5406886;26;20221;-58
2024/04/22 10:13:15;;;;;;;5.83;5.40;;;;;;;;;;5402741;26;20239;-58
2024/04/22 10:15:44;;;;;;;6.30;5.80;;;;;;;;;;5422435;26;20228;-58
2024/04/22 10:18:12;;;;;;;6.53;5.93;;;;;;;;;;5406860;26;20234;-59
2024/04/22 10:20:42;;;;;;;7.30;5.10;;;;;;;;;;5400831;26;20228;-58
2024/04/22 10:23:08;;;;;;;5.17;4.77;;;;;;;;;;5405348;26;20264;-58
2024/04/22 10:25:37;;;;;;;5.53;5.03;;;;;;;;;;5406956;26;20233;-58
2024/04/22 10:28:03;;;;;;;5.50;5.10;;;;;;;;;;5406678;26;20340;-58
2024/04/22 10:30:39;;;;;;;5.60;5.10;;;;;;;;;;5406282;26;20231;-58
2024/04/22 10:33:08;;;;;;;4.77;4.47;;;;;;;;;;5405433;26;20265;-58
2024/04/22 10:35:37;;;;;;;4.93;4.63;;;;;;;;;;5406460;26;20335;-58
2024/04/22 10:38:07;;;;;;;5.00;4.63;;;;;;;;;;5403258;26;20237;-58
2024/04/22 10:40:36;;;;;;;4.70;4.40;;;;;;;;;;5405969;26;20611;-58
2024/04/22 10:43:06;;;;;;;6.53;5.00;;;;;;;;;;5404720;26;20238;-58
2024/04/22 10:45:38;;;;;;;6.03;5.43;;;;;;;;;;5406860;26;20231;-58
2024/04/22 10:48:05;;;;;;;6.03;5.43;;;;;;;;;;5406370;26;20282;-58
2024/04/22 10:50:39;;;;;;;5.60;5.10;;;;;;;;;;5406181;26;20850;-58
2024/04/22 10:53:08;;;;;;;6.20;5.60;;;;;;;;;;5406659;26;20288;-58
2024/04/22 10:55:37;;;;;;;6.53;5.07;;;;;;;;;;5403419;26;20246;-59
2024/04/22 10:58:04;;;;;;;5.17;4.77;;;;;;;;;;5406211;26;20721;-58
2024/04/22 11:00:33;;;;;;;6.27;5.67;;;;;;;;;;5406012;26;20281;-58
2024/04/22 11:03:02;;;;;;;5.60;5.20;;;;;;;;;;5406235;26;20235;-58
2024/04/22 11:05:33;;;;;;;5.53;5.23;;;;;;;;;;5406426;26;20246;-58
2024/04/22 11:07:59;;;;;;;6.23;5.33;;;;;;;;;;5406145;26;20228;-58
2024/04/22 11:10:29;;;;;;;6.70;6.10;;;;;;;;;;5405533;26;20659;-58
2024/04/22 11:12:55;;;;;;;6.47;5.87;;;;;;;;;;5405547;26;20292;-58
2024/04/22 11:15:24;;;;;;;6.45;5.85;;;;;;;;;;5403282;26;20774;-57
2024/04/22 11:17:50;;;;;;;7.67;6.97;;;;;;;;;;5405387;26;20246;-58
2024/04/22 11:20:23;;;;;;;6.27;5.80;;;;;;;;;;5404920;26;20349;-56
2024/04/22 11:22:49;;;;;;;7.70;6.90;;;;;;;;;;5405869;26;20579;-56
2024/04/22 11:25:18;;;;;;;8.40;7.67;;;;;;;;;;5406118;26;20233;-56
2024/04/22 11:27:45;;;;;;;8.40;7.30;;;;;;;;;;5405419;26;20231;-56
2024/04/22 11:30:14;;;;;;;12.97;8.53;;;;;;;;;;5405065;26;20307;-55
2024/04/22 11:32:40;;;;;;;9.00;8.10;;;;;;;;;;5405823;26;20272;-55
2024/04/22 11:35:09;;;;;;;9.03;8.13;;;;;;;;;;5405962;26;20319;-56
2024/04/22 11:37:38;;;;;;;9.10;8.20;;;;;;;;;;5406005;26;20230;-56
2024/04/22 11:40:08;;;;;;;8.00;7.23;;;;;;;;;;5404768;26;20282;-57
2024/04/22 11:42:34;;;;;;;7.87;7.07;;;;;;;;;;5405982;26;20275;-59
2024/04/22 11:45:03;;;;;;;8.43;7.63;;;;;;;;;;5404817;26;20302;-59
2024/04/22 11:47:30;;;;;;;8.50;7.80;;;;;;;;;;5405993;26;20374;-60
2024/04/22 11:49:59;;;;;;;9.00;7.50;;;;;;;;;;5405437;26;20243;-63
2024/04/22 11:52:25;;;;;;;7.53;6.90;;;;;;;;;;5411630;26;20230;-61
2024/04/22 11:54:57;;;;;;;7.87;7.27;;;;;;;;;;5405185;26;20345;-61
2024/04/22 11:57:23;;;;;;;8.30;7.40;;;;;;;;;;5405765;26;20225;-61
2024/04/22 11:59:52;;;;;;;8.27;7.50;;;;;;;;;;5405002;26;20652;-59
2024/04/22 12:02:18;;;;;;;11.23;7.90;;;;;;;;;;5405161;26;20280;-58
2024/04/22 12:04:47;;;;;;;8.90;8.10;;;;;;;;;;5405119;26;20242;-62
2024/04/22 12:07:14;;;;;;;7.50;6.87;;;;;;;;;;5405292;26;20860;-59
2024/04/22 12:09:43;;;;;;;7.73;7.13;;;;;;;;;;5403513;26;20236;-61
2024/04/22 12:12:12;;;;;;;8.20;7.50;;;;;;;;;;5390306;26;21012;-59
2024/04/22 12:14:41;;;;;;;6.70;6.20;;;;;;;;;;5403949;26;20288;-59
2024/04/22 12:17:07;;;;;;;7.23;6.60;;;;;;;;;;5405367;26;20230;-59
2024/04/22 12:19:36;;;;;;;7.63;7.03;;;;;;;;;;5404266;26;20240;-57
2024/04/22 12:22:02;;;;;;;7.33;6.73;;;;;;;;;;5405127;26;20235;-57
2024/04/22 12:24:31;;;;;;;7.30;6.60;;;;;;;;;;5405332;26;20305;-57
2024/04/22 12:26:57;;;;;;;7.20;5.87;;;;;;;;;;5405247;26;20776;-59
2024/04/22 12:29:29;;;;;;;6.30;5.80;;;;;;;;;;5404400;26;20246;-59
2024/04/22 12:31:55;;;;;;;5.60;5.20;;;;;;;;;;5404888;26;20237;-58
2024/04/22 12:34:24;;;;;;;5.13;4.63;;;;;;;;;;5404914;26;20228;-58
2024/04/22 12:36:51;;;;;;;5.93;5.37;;;;;;;;;;5405251;26;20579;-58
2024/04/22 12:39:20;;;;;;;5.33;4.93;;;;;;;;;;5404145;26;20237;-58
2024/04/22 12:41:46;;;;;;;5.77;5.27;;;;;;;;;;5405041;26;20277;-58
2024/04/22 12:44:15;;;;;;;7.00;5.57;;;;;;;;;;5404828;26;20233;-58
2024/04/22 12:52:13;;;;;;;6.73;6.17;;;;;;;;;;5397079;26;20712;-55
2024/04/22 12:54:42;;;;;;;7.47;6.63;;;;;;;;;;5401285;26;20228;-58
2024/04/22 12:57:11;;;;;;;6.50;5.97;;;;;;;;;;5400028;26;20336;-58
2024/04/22 12:59:40;;;;;;;6.80;5.90;;;;;;;;;;5400918;26;20236;-61
2024/04/22 13:02:13;;;;;;;7.20;6.70;;;;;;;;;;5401464;26;20584;-60
2024/04/22 13:04:39;;;;;;;7.23;6.67;;;;;;;;;;5401550;26;20233;-59
2024/04/22 13:07:08;;;;;;;10.83;9.27;;;;;;;;;;5400756;26;20275;-58
2024/04/22 13:09:37;;;;;;;8.80;8.00;;;;;;;;;;5400320;26;20871;-59
2024/04/22 13:12:06;;;;;;;7.83;7.17;;;;;;;;;;5404855;26;20276;-59
2024/04/22 13:14:35;;;;;;;8.30;7.50;;;;;;;;;;5404168;26;20229;-59
2024/04/22 13:17:04;;;;;;;8.27;7.53;;;;;;;;;;5404443;26;20737;-59
2024/04/22 13:19:35;;;;;;;7.47;6.87;;;;;;;;;;5411439;26;20231;-59
2024/04/22 13:22:02;;;;;;;7.63;6.90;;;;;;;;;;5404174;26;20304;-58
2024/04/22 13:24:30;;;;;;;7.93;7.23;;;;;;;;;;5407248;26;20229;-59
2024/04/22 13:26:57;;;;;;;7.60;6.90;;;;;;;;;;5406692;26;20231;-58
2024/04/22 13:29:26;;;;;;;7.53;6.83;;;;;;;;;;5417924;26;20357;-58
2024/04/22 13:31:54;;;;;;;9.40;6.73;;;;;;;;;;5404037;26;20770;-58
2024/04/22 13:34:22;;;;;;;9.27;6.37;;;;;;;;;;5419301;26;20230;-58
2024/04/22 13:36:53;;;;;;;7.70;7.07;;;;;;;;;;5404081;26;20790;-59
2024/04/22 13:39:22;;;;;;;6.77;6.27;;;;;;;;;;5402954;26;20275;-58
2024/04/22 13:41:51;;;;;;;6.80;6.30;;;;;;;;;;5404058;26;20230;-58
2024/04/22 13:44:17;;;;;;;6.73;6.23;;;;;;;;;;5403804;26;20228;-58
2024/04/22 13:46:46;;;;;;;7.90;7.10;;;;;;;;;;5404171;26;20229;-59
2024/04/22 13:49:13;;;;;;;6.10;5.70;;;;;;;;;;5418958;26;20287;-59
2024/04/22 13:51:43;;;;;;;6.67;6.27;;;;;;;;;;5404481;26;20230;-59
2024/04/22 13:54:12;;;;;;;7.83;7.07;;;;;;;;;;5407807;26;20238;-58
2024/04/22 13:56:40;;;;;;;7.30;6.70;;;;;;;;;;5407311;26;20235;-59
2024/04/22 13:59:07;;;;;;;7.67;6.77;;;;;;;;;;5422145;26;20869;-58
2024/04/22 14:01:36;;;;;;;6.73;6.00;;;;;;;;;;5403554;26;20242;-58
2024/04/22 14:04:02;;;;;;;6.33;5.93;;;;;;;;;;5403337;26;20233;-59
2024/04/22 14:06:31;;;;;;;6.60;6.10;;;;;;;;;;5403755;26;20238;-58
2024/04/22 14:08:57;;;;;;;6.77;6.13;;;;;;;;;;5406295;26;20242;-58
2024/04/22 14:11:29;;;;;;;7.13;6.53;;;;;;;;;;5406675;26;20233;-58
2024/04/22 14:13:55;;;;;;;7.20;6.60;;;;;;;;;;5405835;26;20237;-58
2024/04/22 14:16:24;;;;;;;7.10;6.50;;;;;;;;;;5406960;26;20232;-58
2024/04/22 14:18:52;;;;;;;7.03;6.43;;;;;;;;;;5405532;26;20312;-59
2024/04/22 14:21:21;;;;;;;7.37;6.77;;;;;;;;;;5392335;26;20231;-59
2024/04/22 14:23:47;;;;;;;8.67;5.67;;;;;;;;;;5406939;26;20549;-58
2024/04/22 14:26:19;;;;;;;6.40;5.90;;;;;;;;;;5406485;26;20766;-58
2024/04/22 14:28:49;;;;;;;6.63;6.17;;;;;;;;;;5406736;26;20230;-58
2024/04/22 14:31:18;;;;;;;6.20;5.67;;;;;;;;;;5406169;26;20253;-58
2024/04/22 14:33:44;;;;;;;6.27;5.87;;;;;;;;;;5407061;26;20229;-59
2024/04/22 14:36:13;;;;;;;7.27;6.67;;;;;;;;;;5406648;26;20718;-58
2024/04/22 14:38:39;;;;;;;6.47;5.97;;;;;;;;;;5406494;26;20296;-59
2024/04/22 14:41:08;;;;;;;9.27;6.83;;;;;;;;;;5406107;26;20229;-59
2024/04/22 14:43:34;;;;;;;5.83;5.43;;;;;;;;;;5406117;26;20225;-58
2024/04/22 14:46:06;;;;;;;6.63;5.97;;;;;;;;;;5406390;26;20234;-59
2024/04/22 14:48:32;;;;;;;6.63;6.03;;;;;;;;;;5406623;26;20280;-58
2024/04/22 14:51:01;;;;;;;7.80;7.03;;;;;;;;;;5405458;26;20229;-58
2024/04/22 14:53:27;;;;;;;6.53;6.03;;;;;;;;;;5406857;26;20230;-58
2024/04/22 14:55:56;;;;;;;6.63;5.67;;;;;;;;;;5406163;26;20277;-58
2024/04/22 14:58:22;;;;;;;6.30;5.90;;;;;;;;;;5406479;26;20235;-59
2024/04/22 15:00:51;;;;;;;6.80;6.17;;;;;;;;;;5405673;26;20287;-59
2024/04/22 15:03:20;;;;;;;6.90;6.23;;;;;;;;;;5405924;26;20230;-58
2024/04/22 15:05:48;;;;;;;5.50;5.10;;;;;;;;;;5420879;26;20281;-59